Crane, Texas
Current Conditions -  °F | °C
As of 8:53 AM on Saturday 20 Dec 2014 (Local Time) from KODO Reporting Station
Moderate Fog Moderate Fog  
Wind Chill: 33°   Ceiling: 200
Heat Index: 39°   Visibility: 0mi
Dew Point: 38°   Wind: 8mph
Humidity: 96%   Direction: 150°SSE
Pressure: 30.16"   Gusts: NA
Location:  31.4°N, 102.35°W
Report Text: KODO 201453Z AUTO 15007KT M1/4SM FG VV002 04/03 A3016 RMK AO2 SLP207 T00390033 51009
Loading
Personal Weather Stations






























Interactive Weather Map New forecast layout! Learn more

10-Day Weather Forecast

Advertisements
Track Severe Weather on mobile